createdAt,value
2018-11-11T00:00:01.133Z,99537.00
2018-11-11T00:02:28.627Z,99544.00
2018-11-11T00:04:56.104Z,99540.00
2018-11-11T00:07:23.651Z,99528.00
2018-11-11T00:09:51.149Z,99532.00
2018-11-11T00:12:18.656Z,99533.00
2018-11-11T00:14:46.147Z,99524.00
2018-11-11T00:17:13.645Z,99534.00
2018-11-11T00:19:41.148Z,99527.00
2018-11-11T00:22:08.661Z,99522.00
2018-11-11T00:24:36.168Z,99532.00
2018-11-11T00:27:03.706Z,99522.00
2018-11-11T00:29:31.192Z,99519.00
2018-11-11T00:31:58.701Z,99517.00
2018-11-11T00:34:26.192Z,99522.00
2018-11-11T00:36:53.703Z,99517.00
2018-11-11T00:39:21.194Z,99504.00
2018-11-11T00:41:48.732Z,99514.00
2018-11-11T00:44:16.232Z,99498.00
2018-11-11T00:46:43.736Z,99506.00
2018-11-11T00:49:11.210Z,99499.00
2018-11-11T00:51:38.712Z,99499.00
2018-11-11T00:54:06.197Z,99506.00
2018-11-11T00:56:33.679Z,99507.00
2018-11-11T00:59:01.157Z,99527.00
2018-11-11T01:01:28.625Z,99534.00
2018-11-11T01:03:56.112Z,99537.00
2018-11-11T01:06:23.607Z,99546.00
2018-11-11T01:08:51.096Z,99553.00
2018-11-11T01:11:18.617Z,99552.00
2018-11-11T01:13:46.091Z,99546.00
2018-11-11T01:16:13.577Z,99546.00
2018-11-11T01:18:41.170Z,99546.00
2018-11-11T01:21:08.649Z,99545.00
2018-11-11T01:23:36.116Z,99548.00
2018-11-11T01:26:03.588Z,99548.00
2018-11-11T01:28:31.080Z,99538.00
2018-11-11T01:30:58.552Z,99537.00
2018-11-11T01:33:26.031Z,99538.00
2018-11-11T01:35:53.520Z,99536.00
2018-11-11T01:38:21.001Z,99524.00
2018-11-11T01:40:48.488Z,99520.00
2018-11-11T01:43:15.964Z,99521.00
2018-11-11T01:45:43.496Z,99516.00
2018-11-11T01:48:10.961Z,99521.00
2018-11-11T01:50:38.459Z,99528.00
2018-11-11T01:53:05.971Z,99532.00
2018-11-11T01:55:33.476Z,99537.00
2018-11-11T01:58:00.997Z,99537.00
2018-11-11T02:00:28.485Z,99550.00
2018-11-11T02:02:55.997Z,99565.00
2018-11-11T02:05:23.493Z,99577.00
2018-11-11T02:07:50.996Z,99565.00
2018-11-11T02:10:18.501Z,99571.00
2018-11-11T02:12:46.359Z,99568.00
2018-11-11T02:15:14.832Z,99568.00
2018-11-11T02:17:42.371Z,99568.00
2018-11-11T02:20:12.678Z,99572.00
2018-11-11T02:22:40.378Z,99571.00
2018-11-11T02:25:08.442Z,99573.00
2018-11-11T02:27:35.931Z,99553.00
2018-11-11T02:30:04.412Z,99555.00
2018-11-11T02:32:31.901Z,99557.00
2018-11-11T02:34:59.397Z,99545.00
2018-11-11T02:37:26.921Z,99542.00
2018-11-11T02:39:54.376Z,99553.00
2018-11-11T02:42:21.876Z,99555.00
2018-11-11T02:44:49.393Z,99565.00
2018-11-11T02:47:16.877Z,99575.00
2018-11-11T02:49:44.369Z,99572.00
2018-11-11T02:52:11.841Z,99572.00
2018-11-11T02:54:39.325Z,99574.00
2018-11-11T02:57:06.796Z,99577.00
2018-11-11T02:59:34.278Z,99590.00
2018-11-11T03:02:01.782Z,99588.00
2018-11-11T03:04:29.300Z,99581.00
2018-11-11T03:06:56.764Z,99587.00
2018-11-11T03:09:24.253Z,99580.00
2018-11-11T03:11:51.727Z,99571.00
2018-11-11T03:14:19.205Z,99568.00
2018-11-11T03:16:46.712Z,99553.00
2018-11-11T03:19:14.188Z,99555.00
2018-11-11T03:21:41.656Z,99562.00
2018-11-11T03:24:09.140Z,99565.00
2018-11-11T03:26:36.613Z,99564.00
2018-11-11T03:29:04.317Z,99565.00
2018-11-11T03:31:31.817Z,99568.00
2018-11-11T03:33:59.303Z,99567.00
2018-11-11T03:36:26.780Z,99562.00
2018-11-11T03:38:54.256Z,99570.00
2018-11-11T03:41:21.732Z,99564.00
2018-11-11T03:43:49.221Z,99572.00
2018-11-11T03:46:16.700Z,99572.00
2018-11-11T03:48:44.180Z,99570.00
2018-11-11T03:51:11.655Z,99576.00
2018-11-11T03:53:39.148Z,99566.00
2018-11-11T03:56:06.651Z,99566.00
2018-11-11T03:58:34.139Z,99582.00
2018-11-11T04:01:01.670Z,99580.00
2018-11-11T04:03:29.141Z,99584.00
2018-11-11T04:05:56.616Z,99581.00
2018-11-11T04:08:24.099Z,99595.00
2018-11-11T04:10:51.580Z,99594.00
2018-11-11T04:13:19.076Z,99616.00
2018-11-11T04:15:46.546Z,99620.00
2018-11-11T04:18:14.061Z,99623.00
2018-11-11T04:20:41.537Z,99606.00
2018-11-11T04:23:09.065Z,99609.00
2018-11-11T04:25:36.524Z,99611.00
2018-11-11T04:28:04.104Z,99623.00
2018-11-11T04:30:31.594Z,99638.00
2018-11-11T04:32:59.085Z,99633.00
2018-11-11T04:35:26.564Z,99629.00
2018-11-11T04:37:54.029Z,99640.00
2018-11-11T04:40:21.511Z,99637.00
2018-11-11T04:42:48.988Z,99627.00
2018-11-11T04:45:16.524Z,99632.00
2018-11-11T04:47:44.843Z,99636.00
2018-11-11T04:50:13.568Z,99628.00
2018-11-11T04:52:41.728Z,99635.00
2018-11-11T04:55:09.908Z,99630.00
2018-11-11T04:57:45.961Z,99639.00
2018-11-11T05:00:14.080Z,99637.00
2018-11-11T05:02:41.793Z,99639.00
2018-11-11T05:05:10.601Z,99638.00
2018-11-11T05:07:38.202Z,99635.00
2018-11-11T05:10:06.329Z,99647.00
2018-11-11T05:12:34.089Z,99647.00
2018-11-11T05:15:01.577Z,99653.00
2018-11-11T05:17:29.060Z,99657.00
2018-11-11T05:19:56.543Z,99657.00
2018-11-11T05:22:24.021Z,99640.00
2018-11-11T05:24:51.492Z,99634.00
2018-11-11T05:27:18.980Z,99638.00
2018-11-11T05:29:46.468Z,99643.00
2018-11-11T05:32:13.932Z,99639.00
2018-11-11T05:34:41.424Z,99650.00
2018-11-11T05:37:08.902Z,99659.00
2018-11-11T05:39:36.380Z,99655.00
2018-11-11T05:42:03.877Z,99652.00
2018-11-11T05:44:31.373Z,99660.00
2018-11-11T05:46:58.852Z,99659.00
2018-11-11T05:49:26.316Z,99656.00
2018-11-11T05:51:53.848Z,99665.00
2018-11-11T05:54:21.344Z,99668.00
2018-11-11T05:56:48.811Z,99652.00
2018-11-11T05:59:16.300Z,99661.00
2018-11-11T06:01:43.811Z,99668.00
2018-11-11T06:04:11.296Z,99689.00
2018-11-11T06:06:38.768Z,99685.00
2018-11-11T06:09:08.701Z,99679.00
2018-11-11T06:11:36.381Z,99672.00
2018-11-11T06:14:04.225Z,99675.00
2018-11-11T06:16:31.712Z,99674.00
2018-11-11T06:18:59.196Z,99674.00
2018-11-11T06:21:26.720Z,99658.00
2018-11-11T06:23:54.183Z,99657.00
2018-11-11T06:26:21.660Z,99648.00
2018-11-11T06:28:49.140Z,99649.00
2018-11-11T06:31:16.620Z,99644.00
2018-11-11T06:33:44.104Z,99642.00
2018-11-11T06:36:11.581Z,99647.00
2018-11-11T06:38:39.052Z,99647.00
2018-11-11T06:41:06.551Z,99639.00
2018-11-11T06:43:34.030Z,99639.00
2018-11-11T06:46:01.541Z,99641.00
2018-11-11T06:48:29.036Z,99641.00
2018-11-11T06:50:56.532Z,99640.00
2018-11-11T06:53:24.027Z,99657.00
2018-11-11T06:55:51.544Z,99649.00
2018-11-11T06:58:19.041Z,99659.00
2018-11-11T07:00:46.549Z,99674.00
2018-11-11T07:03:31.545Z,99663.00
2018-11-11T07:05:59.068Z,99653.00
2018-11-11T07:08:26.552Z,99658.00
2018-11-11T07:10:54.057Z,99679.00
2018-11-11T07:13:21.553Z,99681.00
2018-11-11T07:15:49.048Z,99680.00
2018-11-11T07:18:16.540Z,99663.00
2018-11-11T07:20:44.033Z,99661.00
2018-11-11T07:23:11.527Z,99668.00
2018-11-11T07:25:39.024Z,99652.00
2018-11-11T07:28:06.524Z,99643.00
2018-11-11T07:30:34.020Z,99649.00
2018-11-11T07:33:01.517Z,99647.00
2018-11-11T07:35:29.020Z,99684.00
2018-11-11T07:37:56.514Z,99683.00
2018-11-11T07:40:24.008Z,99687.00
2018-11-11T07:42:51.492Z,99668.00
2018-11-11T07:45:18.989Z,99655.00
2018-11-11T07:47:46.538Z,99641.00
2018-11-11T07:50:13.952Z,99658.00
2018-11-11T07:52:41.412Z,99684.00
2018-11-11T07:55:10.197Z,99700.00
2018-11-11T07:57:37.640Z,99671.00
2018-11-11T08:00:08.832Z,99669.00
2018-11-11T08:02:36.311Z,99679.00
2018-11-11T08:05:04.324Z,99684.00
2018-11-11T08:07:31.795Z,99693.00
2018-11-11T08:09:59.432Z,99673.00
2018-11-11T08:12:26.908Z,99675.00
2018-11-11T08:14:54.386Z,99680.00
2018-11-11T08:17:21.852Z,99689.00
2018-11-11T08:19:49.315Z,99671.00
2018-11-11T08:22:16.796Z,99666.00
2018-11-11T08:24:44.260Z,99671.00
2018-11-11T08:27:11.737Z,99663.00
2018-11-11T08:29:39.221Z,99686.00
2018-11-11T08:32:06.732Z,99691.00
2018-11-11T08:34:34.185Z,99682.00
2018-11-11T08:37:01.673Z,99676.00
2018-11-11T08:39:29.144Z,99658.00
2018-11-11T08:41:56.615Z,99653.00
2018-11-11T08:44:24.085Z,99653.00
2018-11-11T08:46:51.589Z,99638.00
2018-11-11T08:49:19.112Z,99655.00
2018-11-11T08:51:54.113Z,99673.00
2018-11-11T08:54:49.885Z,99683.00
2018-11-11T08:57:37.010Z,99703.00
2018-11-11T09:00:08.145Z,99710.00
2018-11-11T09:02:35.653Z,99712.00
2018-11-11T09:05:03.228Z,99722.00
2018-11-11T09:07:30.666Z,99723.00
2018-11-11T09:09:58.156Z,99723.00
2018-11-11T09:12:25.651Z,99736.00
2018-11-11T09:14:53.140Z,99733.00
2018-11-11T09:17:20.680Z,99736.00
2018-11-11T09:19:48.139Z,99754.00
2018-11-11T09:22:15.652Z,99752.00
2018-11-11T09:24:43.945Z,99733.00
2018-11-11T09:27:11.440Z,99699.00
2018-11-11T09:29:39.070Z,99676.00
2018-11-11T09:32:06.468Z,99685.00
2018-11-11T09:34:33.968Z,99702.00
2018-11-11T09:37:01.476Z,99707.00
2018-11-11T09:39:29.033Z,99715.00
2018-11-11T09:41:56.520Z,99738.00
2018-11-11T09:44:28.045Z,99750.00
2018-11-11T09:46:55.549Z,99766.00
2018-11-11T09:49:24.108Z,99774.00
2018-11-11T09:52:03.559Z,99788.00
2018-11-11T09:54:51.733Z,99781.00
2018-11-11T09:57:20.276Z,99777.00
2018-11-11T09:59:55.257Z,99777.00
2018-11-11T10:02:53.210Z,99759.00
2018-11-11T10:05:26.468Z,99778.00
2018-11-11T10:07:58.951Z,99780.00
2018-11-11T10:12:36.269Z,99773.00
2018-11-11T10:17:14.013Z,99794.00
2018-11-11T10:19:49.911Z,99794.00
2018-11-11T10:22:23.927Z,99797.00
2018-11-11T10:24:56.600Z,99791.00
2018-11-11T10:27:28.877Z,99804.00
2018-11-11T10:30:10.936Z,99809.00
2018-11-11T10:34:00.854Z,99817.00
2018-11-11T10:37:17.175Z,99820.00
2018-11-11T10:39:57.526Z,99827.00
2018-11-11T10:43:32.020Z,99828.00
2018-11-11T10:46:35.937Z,99854.00
2018-11-11T10:49:05.994Z,99847.00
2018-11-11T10:51:33.665Z,99850.00
2018-11-11T10:54:01.292Z,99850.00
2018-11-11T10:56:28.801Z,99856.00
2018-11-11T10:58:56.265Z,99854.00
2018-11-11T11:01:30.124Z,99860.00
2018-11-11T11:03:57.585Z,99858.00
2018-11-11T11:06:31.000Z,99861.00
2018-11-11T11:09:04.335Z,99869.00
2018-11-11T11:11:31.812Z,99879.00
2018-11-11T11:13:59.384Z,99882.00
2018-11-11T11:16:26.760Z,99885.00
2018-11-11T11:18:54.236Z,99886.00
2018-11-11T11:21:21.712Z,99871.00
2018-11-11T11:23:49.183Z,99855.00
2018-11-11T11:26:16.652Z,99858.00
2018-11-11T11:28:44.124Z,99861.00
2018-11-11T11:31:11.613Z,99862.00
2018-11-11T11:33:39.156Z,99869.00
2018-11-11T11:36:06.631Z,99878.00
2018-11-11T11:38:34.108Z,99887.00
2018-11-11T11:41:01.603Z,99886.00
2018-11-11T11:43:29.188Z,99883.00
2018-11-11T11:45:56.672Z,99872.00
2018-11-11T11:48:24.160Z,99878.00
2018-11-11T11:50:51.625Z,99886.00
2018-11-11T11:53:19.099Z,99884.00
2018-11-11T11:55:46.581Z,99885.00
2018-11-11T11:58:25.745Z,99897.00
2018-11-11T12:00:53.230Z,99895.00
2018-11-11T12:03:20.713Z,99900.00
2018-11-11T12:05:48.180Z,99896.00
2018-11-11T12:08:15.669Z,99885.00
2018-11-11T12:10:43.210Z,99887.00
2018-11-11T12:13:11.580Z,99883.00
2018-11-11T12:15:39.952Z,99877.00
2018-11-11T12:18:07.450Z,99880.00
2018-11-11T12:20:35.481Z,99879.00
2018-11-11T12:23:02.958Z,99874.00
2018-11-11T12:25:30.423Z,99870.00
2018-11-11T12:27:57.903Z,99869.00
2018-11-11T12:30:25.648Z,99867.00
2018-11-11T12:32:53.164Z,99860.00
2018-11-11T12:35:20.660Z,99863.00
2018-11-11T12:37:48.196Z,99861.00
2018-11-11T12:40:15.806Z,99879.00
2018-11-11T12:42:43.474Z,99885.00
2018-11-11T12:45:11.639Z,99875.00
2018-11-11T12:47:39.163Z,99877.00
2018-11-11T12:50:08.412Z,99867.00
2018-11-11T12:52:36.264Z,99873.00
2018-11-11T12:55:03.836Z,99870.00
2018-11-11T12:57:31.345Z,99858.00
2018-11-11T12:59:58.852Z,99860.00
2018-11-11T13:02:26.385Z,99867.00
2018-11-11T13:04:54.466Z,99863.00
2018-11-11T13:07:21.885Z,99858.00
2018-11-11T13:09:49.405Z,99866.00
2018-11-11T13:12:16.942Z,99877.00
2018-11-11T13:14:44.502Z,99876.00
2018-11-11T13:17:12.024Z,99881.00
2018-11-11T13:19:39.583Z,99882.00
2018-11-11T13:22:07.063Z,99883.00
2018-11-11T13:24:34.583Z,99883.00
2018-11-11T13:27:02.094Z,99888.00
2018-11-11T13:29:29.596Z,99878.00
2018-11-11T13:31:57.127Z,99879.00
2018-11-11T13:34:24.596Z,99880.00
2018-11-11T13:36:52.096Z,99876.00
2018-11-11T13:39:19.616Z,99879.00
2018-11-11T13:41:47.125Z,99876.00
2018-11-11T13:44:14.633Z,99871.00
2018-11-11T13:46:42.244Z,99880.00
2018-11-11T13:49:09.627Z,99876.00
2018-11-11T13:51:37.422Z,99882.00
2018-11-11T13:54:05.588Z,99892.00
2018-11-11T13:56:33.062Z,99887.00
2018-11-11T13:59:00.574Z,99890.00
2018-11-11T14:01:28.096Z,99904.00
2018-11-11T14:03:55.547Z,99910.00
2018-11-11T14:06:23.025Z,99900.00
2018-11-11T14:08:50.524Z,99902.00
2018-11-11T14:11:18.028Z,99900.00
2018-11-11T14:13:45.508Z,99904.00
2018-11-11T14:16:12.992Z,99910.00
2018-11-11T14:18:40.613Z,99911.00
2018-11-11T14:21:07.976Z,99919.00
2018-11-11T14:23:35.493Z,99922.00
2018-11-11T14:26:02.997Z,99916.00
2018-11-11T14:28:30.470Z,99922.00
2018-11-11T14:30:57.947Z,99927.00
2018-11-11T14:33:25.443Z,99923.00
2018-11-11T14:35:52.989Z,99929.00
2018-11-11T14:38:20.442Z,99921.00
2018-11-11T14:40:47.936Z,99922.00
2018-11-11T14:43:15.445Z,99920.00
2018-11-11T14:45:43.057Z,99926.00
2018-11-11T14:48:10.689Z,99916.00
2018-11-11T14:50:38.192Z,99913.00
2018-11-11T14:53:05.709Z,99919.00
2018-11-11T14:55:33.215Z,99915.00
2018-11-11T14:58:11.350Z,99913.00
2018-11-11T15:00:38.831Z,99913.00
2018-11-11T15:03:10.692Z,99919.00
2018-11-11T15:05:42.144Z,99923.00
2018-11-11T15:08:09.699Z,99928.00
2018-11-11T15:10:50.549Z,99923.00
2018-11-11T15:13:18.181Z,99932.00
2018-11-11T15:15:45.562Z,99932.00
2018-11-11T15:18:13.044Z,99929.00
2018-11-11T15:20:40.715Z,99948.00
2018-11-11T15:23:08.551Z,99949.00
2018-11-11T15:25:36.045Z,99939.00
2018-11-11T15:28:04.398Z,99944.00
2018-11-11T15:30:41.819Z,99940.00
2018-11-11T15:33:09.156Z,99949.00
2018-11-11T15:35:36.694Z,99949.00
2018-11-11T15:38:05.033Z,99952.00
2018-11-11T15:40:33.753Z,99948.00
2018-11-11T15:43:01.716Z,99973.00
2018-11-11T15:45:36.329Z,99967.00
2018-11-11T15:48:04.303Z,99972.00
2018-11-11T15:50:32.791Z,99983.00
2018-11-11T15:53:01.689Z,99989.00
2018-11-11T15:55:30.576Z,99996.00
2018-11-11T15:57:58.103Z,99996.00
2018-11-11T16:00:27.748Z,99992.00
2018-11-11T16:02:55.248Z,99995.00
2018-11-11T16:05:22.784Z,99997.00
2018-11-11T16:07:51.056Z,100001.00
2018-11-11T16:10:22.696Z,100004.00
2018-11-11T16:12:50.438Z,100007.00
2018-11-11T16:15:20.908Z,100007.00
2018-11-11T16:17:50.696Z,100008.00
2018-11-11T16:20:19.586Z,100005.00
2018-11-11T16:22:48.164Z,100012.00
2018-11-11T16:25:15.696Z,100020.00
2018-11-11T16:27:43.904Z,100013.00
2018-11-11T16:30:15.741Z,100007.00
2018-11-11T16:32:43.731Z,100025.00
2018-11-11T16:35:16.113Z,100020.00
2018-11-11T16:37:43.620Z,100025.00
2018-11-11T16:40:13.663Z,100023.00
2018-11-11T16:42:41.687Z,100012.00
2018-11-11T16:45:12.185Z,100018.00
2018-11-11T16:47:39.693Z,100016.00
2018-11-11T16:50:10.483Z,100015.00
2018-11-11T16:52:38.748Z,100008.00
2018-11-11T16:55:07.414Z,100017.00
2018-11-11T16:57:34.972Z,100019.00
2018-11-11T17:00:02.877Z,100026.00
2018-11-11T17:02:30.344Z,100023.00
2018-11-11T17:04:57.825Z,100019.00
2018-11-11T17:07:25.304Z,100026.00
2018-11-11T17:09:59.825Z,100034.00
2018-11-11T17:12:27.300Z,100038.00
2018-11-11T17:14:54.807Z,100030.00
2018-11-11T17:17:22.276Z,100029.00
2018-11-11T17:19:49.764Z,100026.00
2018-11-11T17:22:17.362Z,100019.00
2018-11-11T17:24:44.745Z,100024.00
2018-11-11T17:27:12.227Z,100027.00
2018-11-11T17:29:39.715Z,100014.00
2018-11-11T17:32:13.943Z,100020.00
2018-11-11T17:34:41.314Z,100023.00
2018-11-11T17:37:08.785Z,100026.00
2018-11-11T17:39:36.272Z,100035.00
2018-11-11T17:42:03.845Z,100030.00
2018-11-11T17:44:31.320Z,100036.00
2018-11-11T17:46:58.840Z,100046.00
2018-11-11T17:49:26.337Z,100054.00
2018-11-11T17:51:53.828Z,100048.00
2018-11-11T17:54:21.327Z,100062.00
2018-11-11T17:56:48.829Z,100060.00
2018-11-11T17:59:16.331Z,100078.00
2018-11-11T18:01:43.869Z,100073.00
2018-11-11T18:04:11.369Z,100080.00
2018-11-11T18:06:38.921Z,100091.00
2018-11-11T18:09:08.072Z,100089.00
2018-11-11T18:11:35.566Z,100079.00
2018-11-11T18:14:03.139Z,100081.00
2018-11-11T18:16:30.563Z,100079.00
2018-11-11T18:18:58.061Z,100077.00
2018-11-11T18:21:25.549Z,100069.00
2018-11-11T18:23:53.042Z,100067.00
2018-11-11T18:26:20.604Z,100077.00
2018-11-11T18:28:48.040Z,100091.00
2018-11-11T18:31:15.556Z,100095.00
2018-11-11T18:33:43.044Z,100090.00
2018-11-11T18:36:27.493Z,100099.00
2018-11-11T18:38:55.110Z,100094.00
2018-11-11T18:41:42.626Z,100086.00
2018-11-11T18:44:10.141Z,100090.00
2018-11-11T18:46:44.260Z,100090.00
2018-11-11T18:49:11.734Z,100081.00
2018-11-11T18:51:39.220Z,100073.00
2018-11-11T18:54:06.705Z,100076.00
2018-11-11T18:56:55.508Z,100081.00
2018-11-11T18:59:22.948Z,100102.00
2018-11-11T19:01:50.434Z,100109.00
2018-11-11T19:04:17.901Z,100106.00
2018-11-11T19:06:45.387Z,100103.00
2018-11-11T19:09:13.727Z,100102.00
2018-11-11T19:11:41.184Z,100099.00
2018-11-11T19:14:08.756Z,100100.00
2018-11-11T19:16:36.446Z,100087.00
2018-11-11T19:19:04.749Z,100095.00
2018-11-11T19:21:32.228Z,100111.00
2018-11-11T19:23:59.737Z,100106.00
2018-11-11T19:26:37.372Z,100098.00
2018-11-11T19:29:04.967Z,100094.00
2018-11-11T19:31:32.453Z,100095.00
2018-11-11T19:33:59.928Z,100097.00
2018-11-11T19:36:27.431Z,100087.00
2018-11-11T19:38:54.899Z,100095.00
2018-11-11T19:41:22.396Z,100087.00
2018-11-11T19:43:49.852Z,100086.00
2018-11-11T19:46:17.424Z,100079.00
2018-11-11T19:49:05.144Z,100087.00
2018-11-11T19:51:32.674Z,100086.00
2018-11-11T19:54:00.394Z,100088.00
2018-11-11T19:56:27.937Z,100091.00
2018-11-11T19:58:55.516Z,100088.00
2018-11-11T20:01:23.041Z,100094.00
2018-11-11T20:03:51.172Z,100095.00
2018-11-11T20:06:18.683Z,100089.00
2018-11-11T20:08:46.184Z,100109.00
2018-11-11T20:11:13.718Z,100105.00
2018-11-11T20:13:41.260Z,100097.00
2018-11-11T20:16:08.764Z,100097.00
2018-11-11T20:18:36.256Z,100103.00
2018-11-11T20:21:03.835Z,100124.00
2018-11-11T20:23:31.325Z,100104.00
2018-11-11T20:25:58.819Z,100105.00
2018-11-11T20:28:26.316Z,100111.00
2018-11-11T20:30:53.825Z,100115.00
2018-11-11T20:33:21.312Z,100119.00
2018-11-11T20:35:48.814Z,100123.00
2018-11-11T20:38:16.323Z,100122.00
2018-11-11T20:40:43.813Z,100119.00
2018-11-11T20:43:11.325Z,100127.00
2018-11-11T20:45:38.797Z,100119.00
2018-11-11T20:48:06.287Z,100101.00
2018-11-11T20:50:34.792Z,100112.00
2018-11-11T20:53:03.676Z,100111.00
2018-11-11T20:55:31.231Z,100107.00
2018-11-11T20:57:58.924Z,100111.00
2018-11-11T21:00:31.671Z,100104.00
2018-11-11T21:02:59.164Z,100096.00
2018-11-11T21:05:27.271Z,100101.00
2018-11-11T21:07:54.878Z,100104.00
2018-11-11T21:10:23.598Z,100103.00
2018-11-11T21:12:51.223Z,100105.00
2018-11-11T21:15:19.995Z,100116.00
2018-11-11T21:17:47.783Z,100118.00
2018-11-11T21:20:16.669Z,100120.00
2018-11-11T21:22:44.168Z,100112.00
2018-11-11T21:25:11.987Z,100133.00
2018-11-11T21:27:40.365Z,100117.00
2018-11-11T21:30:11.075Z,100121.00
2018-11-11T21:32:38.682Z,100105.00
2018-11-11T21:35:06.459Z,100106.00
2018-11-11T21:37:33.940Z,100100.00
2018-11-11T21:40:01.461Z,100102.00
2018-11-11T21:42:29.110Z,100092.00
2018-11-11T21:44:56.589Z,100087.00
2018-11-11T21:47:24.096Z,100088.00
2018-11-11T21:49:51.609Z,100080.00
2018-11-11T21:52:19.105Z,100076.00
2018-11-11T21:54:46.810Z,100083.00
2018-11-11T21:57:14.122Z,100087.00
2018-11-11T21:59:41.600Z,100083.00
2018-11-11T22:02:09.171Z,100093.00
2018-11-11T22:04:36.633Z,100098.00
2018-11-11T22:07:04.428Z,100087.00
2018-11-11T22:09:31.960Z,100104.00
2018-11-11T22:11:59.441Z,100109.00
2018-11-11T22:14:26.932Z,100118.00
2018-11-11T22:16:54.459Z,100124.00
2018-11-11T22:19:21.928Z,100129.00
2018-11-11T22:21:49.451Z,100126.00
2018-11-11T22:24:16.948Z,100132.00
2018-11-11T22:26:44.476Z,100134.00
2018-11-11T22:29:11.969Z,100140.00
2018-11-11T22:31:39.448Z,100149.00
2018-11-11T22:34:13.144Z,100136.00
2018-11-11T22:36:40.648Z,100137.00
2018-11-11T22:39:09.331Z,100151.00
2018-11-11T22:41:37.194Z,100146.00
2018-11-11T22:44:05.029Z,100163.00
2018-11-11T22:46:32.525Z,100162.00
2018-11-11T22:49:00.040Z,100178.00
2018-11-11T22:51:27.512Z,100178.00
2018-11-11T22:54:14.636Z,100180.00
2018-11-11T22:56:42.114Z,100175.00
2018-11-11T22:59:09.597Z,100181.00
2018-11-11T23:01:37.064Z,100167.00
2018-11-11T23:04:07.892Z,100168.00
2018-11-11T23:07:01.089Z,100178.00
2018-11-11T23:09:28.575Z,100183.00
2018-11-11T23:11:56.060Z,100174.00
2018-11-11T23:14:23.553Z,100174.00
2018-11-11T23:16:51.032Z,100190.00
2018-11-11T23:19:18.524Z,100192.00
2018-11-11T23:21:46.004Z,100196.00
2018-11-11T23:24:13.468Z,100202.00
2018-11-11T23:26:40.959Z,100206.00
2018-11-11T23:29:08.449Z,100209.00
2018-11-11T23:31:35.908Z,100211.00
2018-11-11T23:34:03.392Z,100207.00
2018-11-11T23:36:30.865Z,100211.00
2018-11-11T23:38:58.360Z,100207.00
2018-11-11T23:41:25.836Z,100211.00
2018-11-11T23:43:53.322Z,100209.00
2018-11-11T23:46:20.799Z,100210.00
2018-11-11T23:48:48.287Z,100213.00
2018-11-11T23:51:15.812Z,100221.00
2018-11-11T23:53:43.288Z,100212.00
2018-11-11T23:56:10.780Z,100214.00
2018-11-11T23:58:38.272Z,100219.00
